createdAt,value
2017-10-27T00:00:51.171Z,13.30
2017-10-27T00:03:19.754Z,13.40
2017-10-27T00:05:48.447Z,13.30
2017-10-27T00:08:16.828Z,13.40
2017-10-27T00:10:45.399Z,13.30
2017-10-27T00:13:13.884Z,13.30
2017-10-27T00:15:42.244Z,13.20
2017-10-27T00:18:10.610Z,13.20
2017-10-27T00:20:38.967Z,13.20
2017-10-27T00:23:07.339Z,13.20
2017-10-27T00:25:35.966Z,13.20
2017-10-27T00:28:04.345Z,13.20
2017-10-27T00:30:32.819Z,13.20
2017-10-27T00:33:01.170Z,13.20
2017-10-27T00:35:30.315Z,13.20
2017-10-27T00:37:58.695Z,13.20
2017-10-27T00:40:26.715Z,13.20
2017-10-27T00:42:54.752Z,13.20
2017-10-27T00:45:24.056Z,13.20
2017-10-27T00:47:52.419Z,13.20
2017-10-27T00:50:20.852Z,13.10
2017-10-27T00:52:49.313Z,13.10
2017-10-27T00:55:17.605Z,13.10
2017-10-27T00:57:45.619Z,13.10
2017-10-27T01:00:14.824Z,13.10
2017-10-27T01:02:43.427Z,13.10
2017-10-27T01:05:11.827Z,13.10
2017-10-27T01:07:40.189Z,13.10
2017-10-27T01:10:08.552Z,13.10
2017-10-27T01:12:37.674Z,13.10
2017-10-27T01:15:06.048Z,13.10
2017-10-27T01:17:34.626Z,13.10
2017-10-27T01:20:02.642Z,13.10
2017-10-27T01:22:30.458Z,13.00
2017-10-27T01:24:59.139Z,13.00
2017-10-27T01:27:26.803Z,13.00
2017-10-27T01:29:55.227Z,13.00
2017-10-27T01:32:25.095Z,13.00
2017-10-27T01:34:52.770Z,13.00
2017-10-27T01:37:20.790Z,13.00
2017-10-27T01:39:48.568Z,13.00
2017-10-27T01:42:16.951Z,13.00
2017-10-27T01:44:45.628Z,13.00
2017-10-27T01:47:13.298Z,13.00
2017-10-27T01:49:41.769Z,13.00
2017-10-27T01:52:09.787Z,13.00
2017-10-27T01:54:37.605Z,13.00
2017-10-27T01:57:05.695Z,13.00
2017-10-27T01:59:33.542Z,13.00
2017-10-27T02:02:01.603Z,13.00
2017-10-27T02:04:29.614Z,13.00
2017-10-27T02:06:57.291Z,13.00
2017-10-27T02:09:24.987Z,13.00
2017-10-27T02:11:52.999Z,13.00
2017-10-27T02:14:21.046Z,13.00
2017-10-27T02:16:48.992Z,12.90
2017-10-27T02:19:17.005Z,12.90
2017-10-27T02:21:44.676Z,12.90
2017-10-27T02:24:13.123Z,12.90
2017-10-27T02:26:41.145Z,12.90
2017-10-27T02:29:09.163Z,12.90
2017-10-27T02:31:37.183Z,12.90
2017-10-27T02:34:04.859Z,12.90
2017-10-27T02:36:32.794Z,12.90
2017-10-27T02:39:00.477Z,12.90
2017-10-27T02:41:28.499Z,12.90
2017-10-27T02:43:56.867Z,12.80
2017-10-27T02:46:25.235Z,12.70
2017-10-27T02:48:53.608Z,12.70
2017-10-27T02:51:21.635Z,12.60
2017-10-27T02:53:50.004Z,12.60
2017-10-27T02:56:18.020Z,12.60
2017-10-27T02:58:46.467Z,12.60
2017-10-27T03:01:14.828Z,12.60
2017-10-27T03:03:43.191Z,12.60
2017-10-27T03:06:11.553Z,12.50
2017-10-27T03:08:40.074Z,12.50
2017-10-27T03:11:08.665Z,12.40
2017-10-27T03:13:36.682Z,12.50
2017-10-27T03:16:05.301Z,12.50
2017-10-27T03:18:33.679Z,12.50
2017-10-27T03:21:02.115Z,12.40
2017-10-27T03:23:30.529Z,12.50
2017-10-27T03:25:59.007Z,12.60
2017-10-27T03:28:27.383Z,12.60
2017-10-27T03:30:56.013Z,12.60
2017-10-27T03:33:24.649Z,12.60
2017-10-27T03:35:53.015Z,12.60
2017-10-27T03:38:21.394Z,12.60
2017-10-27T03:40:49.759Z,12.50
2017-10-27T03:43:18.153Z,12.50
2017-10-27T03:45:46.628Z,12.50
2017-10-27T03:48:15.010Z,12.40
2017-10-27T03:50:43.023Z,12.40
2017-10-27T03:53:11.391Z,12.40
2017-10-27T03:55:39.412Z,12.40
2017-10-27T03:58:07.180Z,12.40
2017-10-27T04:00:35.084Z,12.40
2017-10-27T04:03:03.455Z,12.40
2017-10-27T04:05:32.003Z,12.40
2017-10-27T04:08:00.435Z,12.40
2017-10-27T04:10:28.818Z,12.30
2017-10-27T04:12:57.184Z,12.30
2017-10-27T04:15:25.602Z,12.20
2017-10-27T04:17:53.959Z,12.20
2017-10-27T04:20:22.327Z,12.10
2017-10-27T04:22:50.695Z,12.00
2017-10-27T04:25:19.062Z,12.00
2017-10-27T04:27:48.207Z,11.90
2017-10-27T04:30:16.268Z,11.90
2017-10-27T04:32:44.645Z,11.90
2017-10-27T04:35:13.125Z,11.80
2017-10-27T04:37:41.727Z,11.80
2017-10-27T04:40:10.183Z,11.70
2017-10-27T04:42:38.659Z,11.70
2017-10-27T04:45:06.668Z,11.70
2017-10-27T04:47:35.033Z,11.70
2017-10-27T04:50:03.396Z,11.70
2017-10-27T04:52:31.771Z,11.60
2017-10-27T04:55:00.147Z,11.60
2017-10-27T04:57:29.544Z,11.60
2017-10-27T04:59:57.906Z,11.60
2017-10-27T05:02:26.280Z,11.60
2017-10-27T05:04:54.784Z,11.60
2017-10-27T05:07:23.239Z,11.60
2017-10-27T05:09:51.615Z,11.70
2017-10-27T05:12:20.058Z,11.60
2017-10-27T05:14:48.515Z,11.60
2017-10-27T05:17:22.280Z,11.70
2017-10-27T05:19:56.030Z,11.70
2017-10-27T05:22:29.916Z,11.70
2017-10-27T05:24:58.281Z,11.70
2017-10-27T05:27:26.643Z,11.70
2017-10-27T05:29:55.222Z,11.70
2017-10-27T05:32:23.585Z,11.70
2017-10-27T05:34:51.951Z,11.70
2017-10-27T05:37:20.310Z,11.70
2017-10-27T05:39:48.664Z,11.70
2017-10-27T05:42:18.538Z,11.70
2017-10-27T05:44:46.904Z,11.60
2017-10-27T05:47:15.267Z,11.70
2017-10-27T05:49:43.654Z,11.70
2017-10-27T05:52:12.019Z,11.70
2017-10-27T05:54:40.406Z,11.70
2017-10-27T05:57:08.923Z,11.70
2017-10-27T05:59:37.547Z,11.70
2017-10-27T06:02:05.948Z,11.70
2017-10-27T06:04:34.538Z,11.70
2017-10-27T06:07:02.903Z,11.60
2017-10-27T06:09:31.275Z,11.60
2017-10-27T06:11:59.651Z,11.60
2017-10-27T06:14:28.021Z,11.50
2017-10-27T06:16:56.396Z,11.50
2017-10-27T06:19:24.761Z,11.40
2017-10-27T06:21:53.125Z,11.40
2017-10-27T06:24:22.250Z,11.40
2017-10-27T06:26:50.625Z,11.30
2017-10-27T06:29:19.007Z,11.40
2017-10-27T06:31:47.026Z,11.40
2017-10-27T06:34:15.450Z,11.40
2017-10-27T06:36:44.134Z,11.50
2017-10-27T06:39:13.016Z,11.50
2017-10-27T06:41:41.387Z,11.50
2017-10-27T06:44:09.573Z,11.60
2017-10-27T06:46:37.942Z,11.50
2017-10-27T06:49:06.305Z,11.60
2017-10-27T06:51:34.696Z,11.60
2017-10-27T06:54:03.071Z,11.60
2017-10-27T06:56:31.423Z,11.60
2017-10-27T06:58:59.816Z,11.60
2017-10-27T07:01:28.399Z,11.60
2017-10-27T07:03:56.754Z,11.70
2017-10-27T07:06:25.124Z,11.70
2017-10-27T07:08:53.626Z,11.70
2017-10-27T07:11:22.031Z,11.70
2017-10-27T07:13:50.407Z,11.70
2017-10-27T07:16:18.787Z,11.60
2017-10-27T07:18:47.138Z,11.60
2017-10-27T07:21:15.512Z,11.60
2017-10-27T07:23:43.886Z,11.60
2017-10-27T07:26:11.902Z,11.60
2017-10-27T07:28:40.275Z,11.50
2017-10-27T07:31:07.941Z,11.50
2017-10-27T07:33:35.622Z,11.40
2017-10-27T07:36:03.637Z,11.50
2017-10-27T07:38:31.912Z,11.40
2017-10-27T07:40:59.932Z,11.40
2017-10-27T07:43:28.708Z,11.40
2017-10-27T07:45:57.088Z,11.40
2017-10-27T07:48:25.107Z,11.40
2017-10-27T07:50:53.458Z,11.40
2017-10-27T07:53:21.131Z,11.40
2017-10-27T07:55:48.803Z,11.40
2017-10-27T07:58:16.829Z,11.40
2017-10-27T08:00:44.682Z,11.40
2017-10-27T08:03:13.112Z,11.40
2017-10-27T08:05:40.790Z,11.40
2017-10-27T08:08:08.459Z,11.40
2017-10-27T08:10:36.675Z,11.40
2017-10-27T08:13:04.599Z,11.40
2017-10-27T08:15:32.336Z,11.40
2017-10-27T08:18:01.771Z,11.50
2017-10-27T08:20:30.558Z,11.50
2017-10-27T08:22:58.239Z,11.50
2017-10-27T08:28:00.845Z,11.50
2017-10-27T08:30:28.747Z,11.60
2017-10-27T08:32:57.105Z,11.60
2017-10-27T08:35:25.382Z,11.60
2017-10-27T08:37:53.048Z,11.60
2017-10-27T08:40:20.732Z,11.60
2017-10-27T08:42:48.751Z,11.70
2017-10-27T08:45:16.501Z,11.70
2017-10-27T08:47:44.170Z,11.70
2017-10-27T08:50:11.917Z,11.80
2017-10-27T08:52:40.292Z,11.90
2017-10-27T08:55:08.307Z,12.10
2017-10-27T08:57:36.336Z,12.20
2017-10-27T09:00:04.194Z,12.30
2017-10-27T09:02:31.856Z,12.30
2017-10-27T09:04:59.522Z,12.40
2017-10-27T09:07:27.209Z,12.40
2017-10-27T09:09:54.884Z,12.40
2017-10-27T09:12:24.403Z,12.30
2017-10-27T09:14:52.079Z,12.30
2017-10-27T09:17:20.098Z,12.30
2017-10-27T09:19:48.471Z,12.40
2017-10-27T09:22:16.844Z,12.40
2017-10-27T09:24:44.516Z,12.50
2017-10-27T09:27:12.191Z,12.60
2017-10-27T09:29:40.302Z,12.70
2017-10-27T09:32:07.970Z,12.70
2017-10-27T09:34:35.895Z,12.80
2017-10-27T09:37:03.906Z,12.80
2017-10-27T09:39:31.959Z,13.00
2017-10-27T09:41:59.971Z,13.10
2017-10-27T09:44:28.335Z,13.10
2017-10-27T09:46:56.023Z,13.10
2017-10-27T09:49:24.804Z,13.10
2017-10-27T09:51:52.508Z,13.10
2017-10-27T09:54:20.167Z,13.00
2017-10-27T09:56:48.582Z,13.00
2017-10-27T09:59:16.253Z,13.00
2017-10-27T10:01:43.926Z,12.90
2017-10-27T10:04:12.364Z,13.00
2017-10-27T10:06:40.408Z,13.00
2017-10-27T10:09:08.071Z,13.10
2017-10-27T10:11:35.762Z,13.30
2017-10-27T10:14:03.776Z,13.50
2017-10-27T10:16:31.453Z,13.50
2017-10-27T10:18:59.318Z,13.60
2017-10-27T10:21:27.387Z,13.50
2017-10-27T10:23:55.973Z,13.50
2017-10-27T10:26:23.656Z,13.50
2017-10-27T10:28:51.684Z,13.30
2017-10-27T10:31:19.711Z,13.30
2017-10-27T10:33:47.977Z,13.50
2017-10-27T10:36:16.313Z,13.60
2017-10-27T10:38:43.787Z,13.70
2017-10-27T10:41:11.457Z,13.90
2017-10-27T10:43:39.288Z,13.80
2017-10-27T10:46:06.979Z,13.90
2017-10-27T10:48:35.665Z,14.00
2017-10-27T10:51:03.697Z,14.00
2017-10-27T10:53:32.130Z,14.00
2017-10-27T10:56:00.271Z,13.60
2017-10-27T10:58:28.286Z,13.20
2017-10-27T11:00:55.950Z,13.00
2017-10-27T11:03:24.819Z,13.00
2017-10-27T11:05:52.602Z,13.00
2017-10-27T11:08:21.928Z,13.00
2017-10-27T11:10:49.947Z,13.10
2017-10-27T11:13:18.981Z,13.20
2017-10-27T11:15:46.645Z,13.20
2017-10-27T11:18:14.665Z,13.20
2017-10-27T11:20:42.371Z,13.40
2017-10-27T11:23:10.400Z,13.40
2017-10-27T11:25:38.623Z,13.40
2017-10-27T11:28:08.038Z,13.50
2017-10-27T11:30:35.735Z,13.50
2017-10-27T11:33:03.411Z,13.60
2017-10-27T11:35:31.188Z,13.60
2017-10-27T11:37:59.200Z,13.80
2017-10-27T11:40:26.862Z,13.90
2017-10-27T11:42:56.042Z,14.00
2017-10-27T11:45:24.396Z,14.00
2017-10-27T11:47:52.772Z,14.00
2017-10-27T11:50:21.132Z,13.80
2017-10-27T11:52:49.573Z,13.70
2017-10-27T11:55:17.952Z,13.70
2017-10-27T11:57:47.086Z,13.60
2017-10-27T12:00:14.761Z,13.50
2017-10-27T12:02:43.136Z,13.60
2017-10-27T12:05:11.503Z,13.60
2017-10-27T12:07:39.670Z,13.60
2017-10-27T12:10:07.428Z,13.50
2017-10-27T12:12:35.435Z,13.30
2017-10-27T12:15:03.116Z,13.10
2017-10-27T12:17:32.248Z,13.00
2017-10-27T12:20:00.275Z,13.00
2017-10-27T12:22:27.976Z,13.10
2017-10-27T12:24:55.991Z,13.20
2017-10-27T12:27:24.352Z,13.20
2017-10-27T12:29:52.099Z,13.30
2017-10-27T12:32:20.324Z,13.30
2017-10-27T12:34:49.115Z,13.40
2017-10-27T12:37:16.791Z,13.40
2017-10-27T12:39:44.871Z,13.40
2017-10-27T12:42:12.531Z,13.40
2017-10-27T12:44:40.549Z,13.40
2017-10-27T12:47:08.566Z,13.50
2017-10-27T12:49:36.627Z,13.50
2017-10-27T12:52:04.304Z,13.70
2017-10-27T12:54:32.063Z,13.80
2017-10-27T12:57:00.439Z,13.70
2017-10-27T12:59:28.859Z,13.70
2017-10-27T13:01:57.226Z,13.50
2017-10-27T13:04:27.091Z,13.40
2017-10-27T13:06:54.764Z,13.40
2017-10-27T13:09:23.128Z,13.30
2017-10-27T13:11:51.502Z,13.30
2017-10-27T13:14:19.167Z,13.30
2017-10-27T13:16:46.843Z,13.30
2017-10-27T13:19:14.590Z,13.20
2017-10-27T13:21:42.259Z,13.30
2017-10-27T13:24:10.102Z,13.40
2017-10-27T13:26:37.848Z,13.50
2017-10-27T13:29:05.506Z,13.60
2017-10-27T13:31:33.202Z,13.60
2017-10-27T13:34:00.891Z,13.60
2017-10-27T13:36:28.601Z,13.50
2017-10-27T13:38:56.557Z,13.40
2017-10-27T13:41:24.914Z,13.40
2017-10-27T13:43:52.584Z,13.40
2017-10-27T13:46:21.186Z,13.40
2017-10-27T13:48:49.203Z,13.40
2017-10-27T13:51:17.327Z,13.50
2017-10-27T13:53:45.698Z,13.40
2017-10-27T13:56:13.711Z,13.40
2017-10-27T13:58:41.397Z,13.50
2017-10-27T14:01:09.087Z,13.60
2017-10-27T14:03:36.748Z,13.70
2017-10-27T14:06:04.422Z,13.80
2017-10-27T14:08:32.436Z,13.90
2017-10-27T14:11:00.106Z,14.00
2017-10-27T14:13:28.544Z,14.30
2017-10-27T14:15:56.560Z,14.30
2017-10-27T14:18:24.920Z,14.40
2017-10-27T14:20:52.946Z,14.40
2017-10-27T14:23:21.319Z,14.50
2017-10-27T14:25:49.688Z,14.50
2017-10-27T14:28:18.055Z,14.60
2017-10-27T14:30:46.426Z,14.70
2017-10-27T14:33:14.786Z,14.70
2017-10-27T14:35:43.140Z,14.70
2017-10-27T14:38:12.470Z,14.60
2017-10-27T14:40:40.841Z,14.60
2017-10-27T14:43:09.207Z,14.70
2017-10-27T14:45:37.663Z,14.80
2017-10-27T14:48:19.490Z,14.90
2017-10-27T14:50:47.967Z,15.00
2017-10-27T14:53:16.344Z,15.10
2017-10-27T14:55:44.718Z,15.00
2017-10-27T14:58:13.067Z,14.90
2017-10-27T15:00:41.944Z,14.80
2017-10-27T15:03:10.461Z,14.80
2017-10-27T15:05:38.474Z,14.80
2017-10-27T15:08:06.857Z,14.70
2017-10-27T15:10:35.283Z,14.60
2017-10-27T15:13:03.352Z,14.50
2017-10-27T15:15:31.715Z,14.40
2017-10-27T15:18:00.072Z,14.30
2017-10-27T15:20:29.240Z,14.20
2017-10-27T15:22:57.852Z,14.10
2017-10-27T15:25:26.461Z,14.10
2017-10-27T15:27:54.139Z,14.00
2017-10-27T15:30:22.500Z,14.00
2017-10-27T15:32:50.875Z,14.00
2017-10-27T15:35:19.244Z,13.90
2017-10-27T15:37:47.603Z,13.90
2017-10-27T15:40:16.101Z,13.80
2017-10-27T15:42:44.612Z,13.60
2017-10-27T15:45:13.160Z,13.50
2017-10-27T15:47:41.519Z,13.30
2017-10-27T15:50:10.148Z,13.10
2017-10-27T15:52:38.517Z,12.90
2017-10-27T15:55:06.884Z,12.90
2017-10-27T15:57:35.251Z,12.80
2017-10-27T16:00:03.627Z,12.70
2017-10-27T16:02:32.096Z,12.60
2017-10-27T16:05:00.782Z,12.60
2017-10-27T16:07:29.139Z,12.60
2017-10-27T16:09:57.512Z,12.50
2017-10-27T16:12:26.635Z,12.40
2017-10-27T16:14:55.208Z,12.40
2017-10-27T16:17:23.569Z,12.40
2017-10-27T16:19:51.958Z,12.30
2017-10-27T16:22:20.335Z,12.30
2017-10-27T16:24:48.695Z,12.30
2017-10-27T16:27:17.150Z,12.30
2017-10-27T16:29:45.519Z,12.30
2017-10-27T16:32:13.880Z,12.30
2017-10-27T16:34:42.256Z,12.20
2017-10-27T16:37:10.620Z,12.20
2017-10-27T16:39:39.275Z,12.20
2017-10-27T16:42:07.636Z,12.10
2017-10-27T16:44:36.022Z,12.10
2017-10-27T16:47:04.372Z,12.00
2017-10-27T16:49:32.749Z,12.10
2017-10-27T16:52:01.152Z,12.10
2017-10-27T16:54:29.540Z,12.10
2017-10-27T16:56:57.217Z,12.10
2017-10-27T16:59:25.873Z,12.00
2017-10-27T17:01:54.251Z,12.00
2017-10-27T17:04:22.687Z,12.00
2017-10-27T17:06:51.102Z,12.00
2017-10-27T17:09:19.682Z,12.00
2017-10-27T17:11:48.061Z,11.90
2017-10-27T17:14:16.549Z,12.00
2017-10-27T17:16:45.144Z,11.90
2017-10-27T17:19:13.508Z,11.90
2017-10-27T17:21:41.880Z,11.90
2017-10-27T17:24:10.281Z,11.90
2017-10-27T17:26:38.646Z,11.80
2017-10-27T17:29:07.099Z,11.80
2017-10-27T17:31:35.473Z,11.90
2017-10-27T17:34:03.921Z,11.90
2017-10-27T17:36:32.275Z,11.90
2017-10-27T17:39:00.652Z,11.90
2017-10-27T17:41:28.337Z,11.90
2017-10-27T17:43:57.456Z,11.90
2017-10-27T17:46:25.146Z,11.90
2017-10-27T17:48:53.519Z,11.90
2017-10-27T17:51:21.558Z,11.90
2017-10-27T17:53:49.997Z,11.90
2017-10-27T17:56:18.371Z,11.90
2017-10-27T17:58:47.331Z,11.80
2017-10-27T18:01:18.324Z,11.80
2017-10-27T18:03:47.049Z,11.70
2017-10-27T18:06:15.409Z,11.60
2017-10-27T18:08:43.778Z,11.60
2017-10-27T18:11:12.147Z,11.50
2017-10-27T18:13:40.508Z,11.60
2017-10-27T18:16:08.493Z,11.50
2017-10-27T18:18:36.874Z,11.50
2017-10-27T18:21:09.337Z,11.50
2017-10-27T18:23:37.820Z,11.50
2017-10-27T18:26:06.191Z,11.50
2017-10-27T18:28:34.552Z,11.50
2017-10-27T18:31:02.917Z,11.50
2017-10-27T18:33:32.051Z,11.70
2017-10-27T18:36:00.647Z,11.60
2017-10-27T18:38:29.047Z,11.70
2017-10-27T18:40:56.765Z,11.80
2017-10-27T18:43:25.346Z,11.80
2017-10-27T18:45:54.020Z,11.80
2017-10-27T18:48:22.194Z,11.80
2017-10-27T18:50:50.569Z,11.80
2017-10-27T18:53:18.742Z,11.90
2017-10-27T18:55:47.116Z,11.90
2017-10-27T18:58:15.573Z,11.90
2017-10-27T19:00:44.705Z,11.90
2017-10-27T19:03:13.101Z,11.90
2017-10-27T19:05:41.643Z,11.90
2017-10-27T19:08:10.022Z,11.90
2017-10-27T19:10:38.483Z,11.80
2017-10-27T19:13:06.843Z,11.80
2017-10-27T19:15:35.234Z,11.80
2017-10-27T19:18:03.606Z,11.80
2017-10-27T19:20:32.075Z,11.80
2017-10-27T19:23:00.428Z,11.80
2017-10-27T19:25:28.811Z,11.80
2017-10-27T19:27:57.334Z,11.80
2017-10-27T19:30:25.011Z,11.80
2017-10-27T19:32:53.087Z,11.80
2017-10-27T19:35:21.452Z,11.80
2017-10-27T19:37:49.824Z,11.80
2017-10-27T19:40:18.211Z,11.80
2017-10-27T19:42:46.716Z,11.80
2017-10-27T19:45:15.095Z,11.90
2017-10-27T19:47:43.523Z,11.90
2017-10-27T19:50:12.702Z,11.90
2017-10-27T19:52:42.320Z,11.90
2017-10-27T19:55:10.697Z,11.90
2017-10-27T19:57:39.062Z,11.90
2017-10-27T20:00:07.439Z,11.90
2017-10-27T20:02:35.844Z,11.90
2017-10-27T20:05:03.869Z,11.90
2017-10-27T20:07:33.033Z,11.90
2017-10-27T20:10:01.212Z,11.80
2017-10-27T20:12:29.593Z,11.90
2017-10-27T20:14:58.013Z,11.90
2017-10-27T20:17:26.389Z,11.80
2017-10-27T20:19:54.839Z,11.80
2017-10-27T20:22:23.243Z,11.80
2017-10-27T20:24:51.824Z,11.80
2017-10-27T20:27:20.190Z,11.80
2017-10-27T20:29:48.559Z,11.70
2017-10-27T20:32:16.951Z,11.70
2017-10-27T20:34:45.391Z,11.60
2017-10-27T20:37:13.807Z,11.60
2017-10-27T20:39:42.388Z,11.50
2017-10-27T20:42:10.762Z,11.50
2017-10-27T20:44:39.119Z,11.50
2017-10-27T20:47:07.487Z,11.50
2017-10-27T20:49:36.624Z,11.60
2017-10-27T20:52:04.999Z,11.60
2017-10-27T20:54:33.366Z,11.60
2017-10-27T20:57:01.052Z,11.60
2017-10-27T20:59:29.430Z,11.70
2017-10-27T21:01:58.049Z,11.70
2017-10-27T21:04:27.203Z,11.60
2017-10-27T21:06:55.562Z,11.60
2017-10-27T21:09:24.971Z,11.60
2017-10-27T21:11:53.591Z,11.50
2017-10-27T21:14:21.968Z,11.50
2017-10-27T21:16:50.344Z,11.50
2017-10-27T21:19:18.713Z,11.50
2017-10-27T21:21:47.078Z,11.50
2017-10-27T21:24:15.450Z,11.50
2017-10-27T21:26:43.811Z,11.50
2017-10-27T21:29:12.195Z,11.50
2017-10-27T21:31:40.562Z,11.50
2017-10-27T21:34:08.921Z,11.50
2017-10-27T21:36:37.358Z,11.50
2017-10-27T21:39:05.719Z,11.60
2017-10-27T21:41:34.084Z,11.60
2017-10-27T21:44:02.445Z,11.60
2017-10-27T21:46:30.486Z,11.60
2017-10-27T21:48:58.849Z,11.60
2017-10-27T21:51:27.217Z,11.60
2017-10-27T21:53:56.560Z,11.50
2017-10-27T21:56:24.920Z,11.50
2017-10-27T21:58:53.296Z,11.50
2017-10-27T22:01:21.523Z,11.50
2017-10-27T22:03:49.883Z,11.50
2017-10-27T22:06:18.266Z,11.50
2017-10-27T22:08:46.653Z,11.40
2017-10-27T22:11:14.679Z,11.40
2017-10-27T22:13:43.054Z,11.40
2017-10-27T22:16:11.416Z,11.40
2017-10-27T22:18:39.810Z,11.40
2017-10-27T22:21:07.499Z,11.40
2017-10-27T22:23:36.052Z,11.40
2017-10-27T22:26:04.419Z,11.40
2017-10-27T22:28:32.809Z,11.40
2017-10-27T22:31:01.176Z,11.40
2017-10-27T22:33:29.559Z,11.30
2017-10-27T22:35:58.263Z,11.30
2017-10-27T22:38:26.627Z,11.30
2017-10-27T22:41:01.031Z,11.30
2017-10-27T22:43:29.396Z,11.30
2017-10-27T22:45:57.766Z,11.40
2017-10-27T22:48:26.136Z,11.40
2017-10-27T22:50:54.519Z,11.30
2017-10-27T22:53:22.884Z,11.30
2017-10-27T22:55:51.327Z,11.30
2017-10-27T22:58:19.697Z,11.30
2017-10-27T23:00:48.075Z,11.40
2017-10-27T23:03:16.460Z,11.40
2017-10-27T23:05:44.636Z,11.40
2017-10-27T23:08:19.260Z,11.40
2017-10-27T23:10:47.619Z,11.40
2017-10-27T23:13:15.985Z,11.40
2017-10-27T23:15:44.347Z,11.40
2017-10-27T23:18:12.725Z,11.40
2017-10-27T23:20:41.101Z,11.40
2017-10-27T23:23:09.455Z,11.40
2017-10-27T23:25:37.876Z,11.40
2017-10-27T23:28:06.235Z,11.40
2017-10-27T23:30:34.605Z,11.40
2017-10-27T23:33:02.967Z,11.40
2017-10-27T23:35:31.331Z,11.40
2017-10-27T23:37:59.694Z,11.40
2017-10-27T23:40:28.256Z,11.40
2017-10-27T23:42:57.568Z,11.40
2017-10-27T23:45:26.040Z,11.40
2017-10-27T23:47:54.412Z,11.40
2017-10-27T23:50:22.768Z,11.40
2017-10-27T23:52:51.131Z,11.30
2017-10-27T23:55:19.565Z,11.30
2017-10-27T23:57:48.138Z,11.30
